Time;durP1;ratioP1;P1;durP2;ratioP2;P2;SDS_P1;SDS_P2;PMS_P1;PMS_P2;Temp;Humidity;BMP_temperature;BMP_pressure;BME280_temperature;BME280_humidity;BME280_pressure;Samples;Min_cycle;Max_cycle;Signal;HPM_P1;HPM_P2
2021/09/17 00:01:52;;;;;;;;;;;;;;;15.05;77.34;101789.88;5055141;28;19908;-34
2021/09/17 00:04:17;;;;;;;;;;;;;;;15.05;77.49;101787.13;5055251;28;19935;-34
2021/09/17 00:06:42;;;;;;;;;;;;;;;15.04;77.58;101796.38;5054628;28;20356;-34
2021/09/17 00:09:08;;;;;;;;;;;;;;;15.03;77.75;101786.56;5055267;28;19909;-34
2021/09/17 00:11:33;;;;;;;;;;;;;;;15.02;77.50;101790.34;5055170;28;19909;-34
2021/09/17 00:14:00;;;;;;;;;;;;;;;14.99;77.75;101787.28;5055144;28;19959;-34
2021/09/17 00:16:25;;;;;;;;;;;;;;;14.97;77.68;101786.66;5055630;28;20239;-34
2021/09/17 00:18:51;;;;;;;;;;;;;;;14.96;78.37;101780.41;5055084;28;20066;-34
2021/09/17 00:21:16;;;;;;;;;;;;;;;14.96;77.92;101785.00;5054156;28;20222;-34
2021/09/17 00:23:41;;;;;;;;;;;;;;;14.94;78.17;101786.09;5054699;28;19910;-35
2021/09/17 00:26:07;;;;;;;;;;;;;;;14.90;77.80;101789.53;5054922;28;20264;-34
2021/09/17 00:28:33;;;;;;;;;;;;;;;14.87;77.85;101779.91;5055207;28;19955;-34
2021/09/17 00:30:58;;;;;;;;;;;;;;;14.83;78.69;101786.06;5055401;28;19952;-34
2021/09/17 00:33:23;;;;;;;;;;;;;;;14.79;78.56;101782.19;5055022;28;20234;-34
2021/09/17 00:35:49;;;;;;;;;;;;;;;14.77;78.10;101776.94;5055160;28;19909;-34
2021/09/17 00:38:14;;;;;;;;;;;;;;;14.74;78.30;101768.41;5054813;28;20345;-34
2021/09/17 00:40:39;;;;;;;;;;;;;;;14.71;78.38;101768.91;5054998;28;20329;-34
2021/09/17 00:43:05;;;;;;;;;;;;;;;14.70;78.33;101764.53;5055180;28;19909;-34
2021/09/17 00:45:30;;;;;;;;;;;;;;;14.68;78.71;101764.75;5053607;28;20386;-34
2021/09/17 00:47:55;;;;;;;;;;;;;;;14.67;78.57;101763.94;5054178;28;20372;-34
2021/09/17 00:50:21;;;;;;;;;;;;;;;14.65;78.94;101766.06;5055030;28;19965;-34
2021/09/17 00:52:47;;;;;;;;;;;;;;;14.65;78.92;101765.25;5054898;28;19948;-34
2021/09/17 00:55:13;;;;;;;;;;;;;;;14.67;78.46;101765.81;5054384;28;19959;-34
2021/09/17 00:57:38;;;;;;;;;;;;;;;14.66;78.60;101764.19;5054374;28;19908;-34
2021/09/17 01:00:05;;;;;;;;;;;;;;;14.66;78.63;101759.56;5054239;28;19908;-34
2021/09/17 01:02:30;;;;;;;;;;;;;;;14.66;78.92;101765.00;5054799;28;20250;-34
2021/09/17 01:04:56;;;;;;;;;;;;;;;14.65;78.83;101771.50;5054221;28;19966;-34
2021/09/17 01:07:21;;;;;;;;;;;;;;;14.64;79.00;101764.41;5054236;28;20325;-34
2021/09/17 01:09:47;;;;;;;;;;;;;;;14.64;78.93;101764.41;5054084;28;19908;-34
2021/09/17 01:12:13;;;;;;;;;;;;;;;14.66;78.99;101756.84;5053918;28;20008;-34
2021/09/17 01:14:39;;;;;;;;;;;;;;;14.66;78.69;101758.72;5053881;28;19952;-34
2021/09/17 01:17:05;;;;;;;;;;;;;;;14.67;78.90;101765.81;5054103;28;19909;-34
2021/09/17 01:19:30;;;;;;;;;;;;;;;14.68;79.11;101760.13;5053010;28;19958;-34
2021/09/17 01:21:56;;;;;;;;;;;;;;;14.68;78.97;101759.31;5054316;28;20016;-34
2021/09/17 01:24:22;;;;;;;;;;;;;;;14.65;79.23;101755.19;5053588;28;20380;-34
2021/09/17 01:26:47;;;;;;;;;;;;;;;14.64;79.17;101758.13;5053831;28;19916;-34
2021/09/17 01:29:12;;;;;;;;;;;;;;;14.63;78.93;101751.84;5053848;28;19909;-34
2021/09/17 01:31:38;;;;;;;;;;;;;;;14.64;78.95;101752.66;5054162;28;19908;-34
2021/09/17 01:34:04;;;;;;;;;;;;;;;14.64;79.16;101753.53;5053627;28;19908;-35
2021/09/17 01:36:30;;;;;;;;;;;;;;;14.63;79.31;101749.13;5053763;28;19975;-34
2021/09/17 01:38:55;;;;;;;;;;;;;;;14.62;79.69;101743.94;5053866;28;19908;-35
2021/09/17 01:41:20;;;;;;;;;;;;;;;14.61;79.37;101737.66;5053682;28;19920;-34
2021/09/17 01:43:46;;;;;;;;;;;;;;;14.63;80.16;101743.69;5053587;28;19909;-35
2021/09/17 01:46:11;;;;;;;;;;;;;;;14.62;79.88;101743.94;5054431;28;19909;-34
2021/09/17 01:48:36;;;;;;;;;;;;;;;14.62;79.63;101743.94;5053455;28;19908;-34
2021/09/17 01:51:02;;;;;;;;;;;;;;;14.64;79.56;101741.78;5053152;28;19909;-34
2021/09/17 01:53:27;;;;;;;;;;;;;;;14.65;79.53;101738.03;5053587;28;19908;-34
2021/09/17 01:55:52;;;;;;;;;;;;;;;14.70;79.65;101729.16;5053139;28;19908;-34
2021/09/17 01:58:18;;;;;;;;;;;;;;;14.69;79.71;101731.03;5053431;28;19954;-34
2021/09/17 02:00:43;;;;;;;;;;;;;;;14.66;79.50;101729.63;5053374;28;20303;-34
2021/09/17 02:03:08;;;;;;;;;;;;;;;14.65;79.87;101730.69;5053381;28;19908;-34
2021/09/17 02:05:34;;;;;;;;;;;;;;;14.67;79.33;101725.00;5053636;28;19915;-34
2021/09/17 02:07:59;;;;;;;;;;;;;;;14.67;79.58;101720.38;5052013;28;19908;-34
2021/09/17 02:10:24;;;;;;;;;;;;;;;14.70;79.53;101720.97;5053188;28;20334;-34
2021/09/17 02:12:50;;;;;;;;;;;;;;;14.72;79.80;101719.66;5053298;28;20280;-34
2021/09/17 02:15:15;;;;;;;;;;;;;;;14.73;79.41;101717.75;5053280;28;19909;-34
2021/09/17 02:17:40;;;;;;;;;;;;;;;14.73;79.76;101715.03;5053974;28;19971;-34
2021/09/17 02:20:07;;;;;;;;;;;;;;;14.71;79.32;101719.91;5053612;28;19916;-34
2021/09/17 02:22:34;;;;;;;;;;;;;;;14.70;79.48;101710.09;5053081;28;20008;-34
2021/09/17 02:24:59;;;;;;;;;;;;;;;14.69;79.56;101712.00;5053835;28;19909;-34
2021/09/17 02:27:24;;;;;;;;;;;;;;;14.70;79.63;101710.09;5053106;28;20301;-34
2021/09/17 02:29:50;;;;;;;;;;;;;;;14.68;79.60;101705.69;5054590;28;20262;-34
2021/09/17 02:32:15;;;;;;;;;;;;;;;14.67;79.46;101704.03;5057160;28;19909;-34
2021/09/17 02:34:41;;;;;;;;;;;;;;;14.67;79.89;101709.47;5057051;28;19919;-34
2021/09/17 02:37:07;;;;;;;;;;;;;;;14.65;79.96;101706.19;5057245;28;19909;-35
2021/09/17 02:39:32;;;;;;;;;;;;;;;14.64;79.62;101698.22;5056962;28;19963;-34
2021/09/17 02:41:58;;;;;;;;;;;;;;;14.63;80.20;101697.41;5056920;28;19909;-34
2021/09/17 02:44:23;;;;;;;;;;;;;;;14.61;79.98;101693.28;5057352;28;20015;-34
2021/09/17 02:46:49;;;;;;;;;;;;;;;14.60;80.03;101702.53;5057399;28;19954;-34
2021/09/17 02:49:14;;;;;;;;;;;;;;;14.58;80.18;101691.84;5056593;28;19917;-34
2021/09/17 02:51:39;;;;;;;;;;;;;;;14.59;79.76;101698.97;5056711;28;19912;-34
2021/09/17 02:54:05;;;;;;;;;;;;;;;14.61;80.05;101694.09;5057493;28;20311;-34
2021/09/17 02:56:30;;;;;;;;;;;;;;;14.61;79.89;101688.66;5057143;28;20003;-34
2021/09/17 02:58:55;;;;;;;;;;;;;;;14.61;80.35;101688.66;5056531;28;19959;-34
2021/09/17 03:01:21;;;;;;;;;;;;;;;14.62;80.00;101681.31;5056554;28;19962;-34
2021/09/17 03:03:46;;;;;;;;;;;;;;;14.61;80.07;101683.22;5056696;28;19909;-34
2021/09/17 03:06:11;;;;;;;;;;;;;;;14.62;79.98;101684.88;5056708;28;19908;-35
2021/09/17 03:08:37;;;;;;;;;;;;;;;14.62;79.92;101679.44;5056966;28;19909;-34
2021/09/17 03:11:02;;;;;;;;;;;;;;;14.63;80.06;101675.63;5055254;28;19916;-35
2021/09/17 03:13:28;;;;;;;;;;;;;;;14.63;80.11;101681.06;5056604;28;19958;-34
2021/09/17 03:15:53;;;;;;;;;;;;;;;14.62;80.16;101682.16;5056244;28;20000;-34
2021/09/17 03:18:19;;;;;;;;;;;;;;;14.63;79.97;101674.81;5055944;28;19936;-34
2021/09/17 03:20:44;;;;;;;;;;;;;;;14.64;79.81;101671.00;5056200;28;19909;-34
2021/09/17 03:23:11;;;;;;;;;;;;;;;14.66;80.26;101664.28;5056138;28;19955;-34
2021/09/17 03:25:36;;;;;;;;;;;;;;;14.66;79.98;101667.00;5056351;28;20221;-34
2021/09/17 03:28:01;;;;;;;;;;;;;;;14.65;80.48;101662.63;5056322;28;19908;-34
2021/09/17 03:30:27;;;;;;;;;;;;;;;14.64;80.58;101655.53;5055940;28;20348;-34
2021/09/17 03:32:52;;;;;;;;;;;;;;;14.63;80.53;101659.31;5056393;28;19908;-35
2021/09/17 03:35:17;;;;;;;;;;;;;;;14.62;80.48;101652.22;5055964;28;19909;-34
2021/09/17 03:37:43;;;;;;;;;;;;;;;14.63;80.32;101659.31;5055562;28;19916;-34
2021/09/17 03:40:09;;;;;;;;;;;;;;;14.62;80.69;101663.09;5056076;28;19975;-34
2021/09/17 03:42:34;;;;;;;;;;;;;;;14.62;80.24;101657.66;5054988;28;19909;-34
2021/09/17 03:44:59;;;;;;;;;;;;;;;14.61;80.63;101661.44;5055474;28;19916;-34
2021/09/17 03:47:25;;;;;;;;;;;;;;;14.61;80.33;101655.19;5055726;28;19959;-34
2021/09/17 03:49:50;;;;;;;;;;;;;;;14.60;81.00;101653.53;5055480;28;19952;-34
2021/09/17 03:52:15;;;;;;;;;;;;;;;14.60;80.57;101653.53;5055578;28;19908;-34
2021/09/17 03:54:41;;;;;;;;;;;;;;;14.60;80.58;101643.47;5054260;28;19909;-34
2021/09/17 03:57:06;;;;;;;;;;;;;;;14.58;80.90;101651.03;5055835;28;19915;-36
2021/09/17 03:59:31;;;;;;;;;;;;;;;14.56;81.05;101645.00;5055272;28;19915;-34
2021/09/17 04:02:00;;;;;;;;;;;;;;;14.57;80.67;101643.09;5056007;28;19909;-34
2021/09/17 04:04:26;;;;;;;;;;;;;;;14.59;80.73;101641.81;5055593;28;19909;-34
2021/09/17 04:06:51;;;;;;;;;;;;;;;14.60;80.89;101646.19;5055779;28;20015;-35
2021/09/17 04:09:16;;;;;;;;;;;;;;;14.61;80.49;101650.56;5054873;28;19909;-34
2021/09/17 04:11:42;;;;;;;;;;;;;;;14.64;80.72;101643.78;5054850;28;19920;-34
2021/09/17 04:14:07;;;;;;;;;;;;;;;14.63;80.68;101642.97;5054877;28;19908;-34
2021/09/17 04:16:32;;;;;;;;;;;;;;;14.63;80.89;101648.41;5055937;28;19909;-34
2021/09/17 04:18:58;;;;;;;;;;;;;;;14.62;80.49;101640.50;5054374;28;19908;-34
2021/09/17 04:21:23;;;;;;;;;;;;;;;14.65;80.57;101650.91;5055908;28;19908;-34
2021/09/17 04:23:48;;;;;;;;;;;;;;;14.64;80.57;101649.25;5054765;28;19915;-34
2021/09/17 04:26:13;;;;;;;;;;;;;;;14.64;80.51;101654.69;5053865;28;19916;-34
2021/09/17 04:28:39;;;;;;;;;;;;;;;14.62;80.86;101652.22;5055425;28;19909;-34
2021/09/17 04:31:04;;;;;;;;;;;;;;;14.61;80.82;101644.28;5053455;28;20008;-34
2021/09/17 04:33:29;;;;;;;;;;;;;;;14.62;80.88;101640.50;5054401;28;19960;-34
2021/09/17 04:35:55;;;;;;;;;;;;;;;14.63;81.09;101636.69;5055018;28;19909;-34
2021/09/17 04:38:20;;;;;;;;;;;;;;;14.62;81.70;101644.03;5054602;28;19912;-34
2021/09/17 04:40:45;;;;;;;;;;;;;;;14.59;80.87;101643.69;5055390;28;19912;-34
2021/09/17 04:43:11;;;;;;;;;;;;;;;14.59;80.76;101647.25;5054502;28;20328;-34
2021/09/17 04:45:36;;;;;;;;;;;;;;;14.57;81.19;101649.38;5055144;28;20344;-35
2021/09/17 04:48:06;;;;;;;;;;;;;;;14.58;81.04;101650.19;5055134;28;19916;-35
2021/09/17 04:50:31;;;;;;;;;;;;;;;14.58;81.14;101642.84;5055112;28;20014;-35
2021/09/17 04:52:57;;;;;;;;;;;;;;;14.59;81.20;101649.97;5053657;28;19908;-35
2021/09/17 04:55:22;;;;;;;;;;;;;;;14.59;80.84;101647.25;5054752;28;19908;-35
2021/09/17 04:57:47;;;;;;;;;;;;;;;14.59;80.98;101646.41;5054386;28;19908;-35
2021/09/17 05:00:13;;;;;;;;;;;;;;;14.60;80.81;101651.63;5054004;28;20019;-35
2021/09/17 05:02:38;;;;;;;;;;;;;;;14.61;81.10;101645.13;5054856;28;20007;-36
2021/09/17 05:05:04;;;;;;;;;;;;;;;14.62;80.94;101641.31;5054219;28;19909;-35
2021/09/17 05:07:33;;;;;;;;;;;;;;;14.64;81.11;101649.25;5054722;28;19909;-36
2021/09/17 05:09:59;;;;;;;;;;;;;;;14.63;81.24;101642.97;5053977;28;19985;-35
2021/09/17 05:12:24;;;;;;;;;;;;;;;14.63;80.93;101644.88;5053948;28;19915;-36
2021/09/17 05:14:49;;;;;;;;;;;;;;;14.60;81.81;101646.19;5054488;28;20362;-36
2021/09/17 05:17:15;;;;;;;;;;;;;;;14.57;81.43;101640.38;5054177;28;20415;-36
2021/09/17 05:19:40;;;;;;;;;;;;;;;14.54;81.87;101638.97;5053924;28;19959;-36
2021/09/17 05:22:06;;;;;;;;;;;;;;;14.52;82.42;101630.22;5053930;28;19908;-36
2021/09/17 05:24:31;;;;;;;;;;;;;;;14.51;81.79;101633.19;5054213;28;19917;-36
2021/09/17 05:26:56;;;;;;;;;;;;;;;14.54;81.59;101619.06;5054580;28;20256;-36
2021/09/17 05:29:21;;;;;;;;;;;;;;;14.54;81.52;101622.66;5054300;28;20317;-36
2021/09/17 05:31:47;;;;;;;;;;;;;;;14.55;82.01;101618.03;5053462;28;20415;-36
2021/09/17 05:34:13;;;;;;;;;;;;;;;14.54;82.19;101617.22;5053780;28;19909;-36
2021/09/17 05:36:38;;;;;;;;;;;;;;;14.53;82.12;101626.41;5054505;28;19909;-36
2021/09/17 05:39:03;;;;;;;;;;;;;;;14.53;82.37;101623.69;5053597;28;19909;-36
2021/09/17 05:41:29;;;;;;;;;;;;;;;14.54;82.29;101632.69;5054208;28;19909;-36
2021/09/17 05:43:54;;;;;;;;;;;;;;;14.54;82.34;101630.81;5053589;28;19915;-36
2021/09/17 05:46:19;;;;;;;;;;;;;;;14.56;83.41;101636.84;5053924;28;19909;-36
2021/09/17 05:48:45;;;;;;;;;;;;;;;14.57;82.30;101643.94;5053303;28;20027;-36
2021/09/17 05:51:10;;;;;;;;;;;;;;;14.59;82.00;101641.81;5053788;28;19936;-36
2021/09/17 05:53:35;;;;;;;;;;;;;;;14.64;82.02;101643.78;5053499;28;20023;-36
2021/09/17 05:56:01;;;;;;;;;;;;;;;14.67;81.42;101648.78;5053523;28;19908;-36
2021/09/17 05:58:30;;;;;;;;;;;;;;;14.66;81.79;101641.69;5053765;28;19908;-36
2021/09/17 06:00:56;;;;;;;;;;;;;;;14.67;81.27;101641.44;5053719;28;19908;-36
2021/09/17 06:03:21;;;;;;;;;;;;;;;14.70;81.85;101639.31;5053083;28;20415;-36
2021/09/17 06:05:47;;;;;;;;;;;;;;;14.72;81.20;101634.44;5052028;28;19915;-36
2021/09/17 06:08:12;;;;;;;;;;;;;;;14.74;81.29;101635.88;5053887;28;20333;-36
2021/09/17 06:10:38;;;;;;;;;;;;;;;14.76;81.48;101643.78;5053709;28;19909;-37
2021/09/17 06:13:03;;;;;;;;;;;;;;;14.78;81.27;101639.75;5052966;28;19909;-36
2021/09/17 06:15:28;;;;;;;;;;;;;;;14.83;81.01;101644.47;5053350;28;19915;-34
2021/09/17 06:17:54;;;;;;;;;;;;;;;14.84;81.38;101643.44;5053635;28;20003;-34
2021/09/17 06:20:19;;;;;;;;;;;;;;;14.86;81.13;101644.84;5052906;28;20055;-34
2021/09/17 06:22:45;;;;;;;;;;;;;;;14.90;80.92;101648.75;5053517;28;20345;-34
2021/09/17 06:25:12;;;;;;;;;;;;;;;14.92;81.09;101646.59;5053159;28;19913;-34
2021/09/17 06:27:37;;;;;;;;;;;;;;;14.96;80.82;101646.13;5053078;28;19909;-34
2021/09/17 06:30:04;;;;;;;;;;;;;;;14.99;81.32;101651.91;5053010;28;19909;-34
2021/09/17 06:32:29;;;;;;;;;;;;;;;15.02;81.15;101647.88;5053021;28;19958;-34
2021/09/17 06:34:55;;;;;;;;;;;;;;;15.04;81.18;101651.19;5053082;28;19908;-34
2021/09/17 06:37:20;;;;;;;;;;;;;;;15.08;80.91;101650.47;5053321;28;19939;-34
2021/09/17 06:39:45;;;;;;;;;;;;;;;15.09;80.88;101648.56;5053395;28;20007;-34
2021/09/17 06:42:11;;;;;;;;;;;;;;;15.10;81.09;101648.31;5053834;28;19909;-34
2021/09/17 06:44:36;;;;;;;;;;;;;;;15.14;80.61;101654.13;5053067;28;19909;-36
2021/09/17 06:47:02;;;;;;;;;;;;;;;15.16;80.73;101651.97;5053383;28;20295;-36
2021/09/17 06:49:27;;;;;;;;;;;;;;;15.17;80.95;101649.00;5053486;28;19913;-36
2021/09/17 06:51:52;;;;;;;;;;;;;;;15.19;80.82;101640.59;5053654;28;19908;-36
2021/09/17 06:54:18;;;;;;;;;;;;;;;15.21;81.02;101646.63;5052970;28;19936;-36
2021/09/17 06:56:43;;;;;;;;;;;;;;;15.24;80.76;101650.78;5053535;28;19954;-36
2021/09/17 06:59:08;;;;;;;;;;;;;;;15.23;81.03;101644.50;5052670;28;19909;-36
2021/09/17 07:01:34;;;;;;;;;;;;;;;15.25;80.56;101645.09;5053152;28;19954;-36
2021/09/17 07:03:59;;;;;;;;;;;;;;;15.27;81.05;101650.28;5052513;28;19913;-34
2021/09/17 07:06:25;;;;;;;;;;;;;;;15.29;81.21;101648.16;5053340;28;19932;-34
2021/09/17 07:08:52;;;;;;;;;;;;;;;15.30;80.94;101649.81;5053019;28;19921;-34
2021/09/17 07:11:17;;;;;;;;;;;;;;;15.27;81.65;101642.94;5052864;28;20371;-34
2021/09/17 07:13:42;;;;;;;;;;;;;;;15.30;81.56;101636.19;5052865;28;19909;-34
2021/09/17 07:16:08;;;;;;;;;;;;;;;15.33;80.89;101641.97;5054259;28;20348;-34
2021/09/17 07:18:33;;;;;;;;;;;;;;;15.36;81.39;101635.19;5055954;28;19908;-34
2021/09/17 07:20:58;;;;;;;;;;;;;;;15.39;81.19;101640.16;5056551;28;20402;-34
2021/09/17 07:23:24;;;;;;;;;;;;;;;15.43;81.65;101635.88;5056150;28;20352;-34
2021/09/17 07:25:49;;;;;;;;;;;;;;;15.47;81.79;101634.34;5056040;28;19908;-34
2021/09/17 07:28:14;;;;;;;;;;;;;;;15.50;81.31;101635.72;5056074;28;20054;-34
2021/09/17 07:30:40;;;;;;;;;;;;;;;15.54;81.42;101632.28;5056081;28;19936;-34
2021/09/17 07:33:06;;;;;;;;;;;;;;;15.57;81.58;101636.44;5055960;28;19919;-34
2021/09/17 07:35:31;;;;;;;;;;;;;;;15.63;81.79;101641.75;5057093;28;20013;-34
2021/09/17 07:37:57;;;;;;;;;;;;;;;15.62;82.55;101640.06;5055615;28;19962;-34
2021/09/17 07:40:23;;;;;;;;;;;;;;;15.63;82.66;101636.28;5055436;28;19958;-34
2021/09/17 07:42:49;;;;;;;;;;;;;;;15.67;81.41;101637.47;5055954;28;19912;-34
2021/09/17 07:45:16;;;;;;;;;;;;;;;15.70;82.23;101641.56;5055612;28;19915;-34
2021/09/17 07:47:41;;;;;;;;;;;;;;;15.75;81.85;101632.66;5056175;28;19987;-34
2021/09/17 07:50:08;;;;;;;;;;;;;;;15.82;82.00;101634.16;5055311;28;19912;-34
2021/09/17 07:52:33;;;;;;;;;;;;;;;15.91;82.24;101642.78;5055333;28;19978;-34
2021/09/17 07:54:59;;;;;;;;;;;;;;;15.93;82.38;101635.97;5054283;28;19909;-34
2021/09/17 07:57:24;;;;;;;;;;;;;;;15.96;82.08;101634.69;5056065;28;19962;-34
2021/09/17 07:59:49;;;;;;;;;;;;;;;15.96;81.79;101637.41;5055119;28;19959;-34
2021/09/17 08:02:15;;;;;;;;;;;;;;;16.01;81.83;101642.13;5055622;28;19915;-34
2021/09/17 08:04:40;;;;;;;;;;;;;;;16.07;81.79;101644.66;5055493;28;19912;-34
2021/09/17 08:07:06;;;;;;;;;;;;;;;16.11;81.76;101642.28;5055050;28;19948;-34
2021/09/17 08:09:32;;;;;;;;;;;;;;;16.16;81.66;101647.81;5055508;28;19986;-34
2021/09/17 08:11:58;;;;;;;;;;;;;;;16.22;82.48;101647.63;5054848;28;20303;-34
2021/09/17 08:14:23;;;;;;;;;;;;;;;16.26;81.74;101650.72;5054866;28;19908;-36
2021/09/17 08:16:48;;;;;;;;;;;;;;;16.35;81.90;101646.47;5055416;28;19908;-36
2021/09/17 08:19:14;;;;;;;;;;;;;;;16.48;82.05;101642.56;5055132;28;19908;-36
2021/09/17 08:21:41;;;;;;;;;;;;;;;16.59;81.95;101640.78;5054811;28;19936;-36
2021/09/17 08:24:13;;;;;;;;;;;;;;;16.71;81.36;101638.78;5054756;28;19909;-36
2021/09/17 08:26:39;;;;;;;;;;;;;;;16.77;81.06;101636.97;5054921;28;19908;-36
2021/09/17 08:29:04;;;;;;;;;;;;;;;16.85;80.74;101628.34;5054734;28;19919;-36
2021/09/17 08:31:29;;;;;;;;;;;;;;;16.90;81.17;101631.16;5055174;28;19909;-36
2021/09/17 08:33:54;;;;;;;;;;;;;;;16.98;81.04;101637.00;5055602;28;20313;-36
2021/09/17 08:36:20;;;;;;;;;;;;;;;17.07;80.81;101636.53;5054832;28;20345;-36
2021/09/17 08:38:45;;;;;;;;;;;;;;;17.18;80.58;101632.88;5054679;28;19908;-36
2021/09/17 08:41:11;;;;;;;;;;;;;;;17.28;80.56;101621.22;5054899;28;20439;-34
2021/09/17 08:43:36;;;;;;;;;;;;;;;17.39;79.96;101626.53;5054233;28;20361;-34
2021/09/17 08:46:01;;;;;;;;;;;;;;;17.47;79.37;101617.88;5054897;28;19916;-34
2021/09/17 08:48:28;;;;;;;;;;;;;;;17.59;79.73;101628.63;5054144;28;19908;-34
2021/09/17 08:50:55;;;;;;;;;;;;;;;17.69;78.80;101625.16;5053824;28;19932;-34
2021/09/17 08:53:20;;;;;;;;;;;;;;;17.76;78.78;101625.81;5054451;28;19912;-34
2021/09/17 08:55:49;;;;;;;;;;;;;;;17.82;78.59;101626.69;5054969;28;19916;-34
2021/09/17 08:58:15;;;;;;;;;;;;;;;17.81;78.22;101625.03;5054523;28;20017;-34
2021/09/17 09:00:41;;;;;;;;;;;;;;;17.85;78.28;101632.44;5054542;28;19912;-34
2021/09/17 09:03:09;;;;;;;;;;;;;;;17.96;78.17;101625.19;5054083;28;20355;-36
2021/09/17 09:05:35;;;;;;;;;;;;;;;18.09;77.88;101621.97;5054150;28;19908;-36
2021/09/17 09:08:00;;;;;;;;;;;;;;;18.22;77.96;101624.28;5054347;28;19908;-36
2021/09/17 09:10:26;;;;;;;;;;;;;;;18.35;77.76;101625.72;5053827;28;19909;-36
2021/09/17 09:12:52;;;;;;;;;;;;;;;18.49;77.14;101623.34;5054335;28;19913;-34
2021/09/17 09:15:18;;;;;;;;;;;;;;;18.58;76.03;101626.41;5053648;28;19915;-34
2021/09/17 09:17:44;;;;;;;;;;;;;;;18.66;76.65;101618.50;5053775;28;20276;-34
2021/09/17 09:20:21;;;;;;;;;;;;;;;18.81;76.59;101627.94;5054130;28;19913;-36
2021/09/17 09:23:02;;;;;;;;;;;;;;;18.90;76.64;101631.81;5053848;28;19909;-36
2021/09/17 09:25:27;;;;;;;;;;;;;;;19.00;76.30;101623.63;5053909;28;19908;-37
2021/09/17 09:27:53;;;;;;;;;;;;;;;19.12;74.95;101626.94;5054400;28;19908;-37
2021/09/17 09:30:28;;;;;;;;;;;;;;;19.19;74.73;101627.53;5054339;28;20210;-37
2021/09/17 09:32:53;;;;;;;;;;;;;;;19.28;75.25;101630.56;5053745;28;19908;-34
2021/09/17 09:35:18;;;;;;;;;;;;;;;19.37;73.55;101623.44;5053692;28;19915;-34
2021/09/17 09:37:44;;;;;;;;;;;;;;;19.45;74.59;101624.84;5053393;28;20365;-34
2021/09/17 09:40:12;;;;;;;;;;;;;;;19.53;73.69;101629.81;5052901;28;19936;-34
2021/09/17 09:42:59;;;;;;;;;;;;;;;19.64;74.10;101622.44;5054310;28;20198;-34
2021/09/17 09:45:24;;;;;;;;;;;;;;;19.76;73.76;101625.72;5054140;28;19917;-34
2021/09/17 09:47:50;;;;;;;;;;;;;;;19.83;72.72;101631.78;5053424;28;20376;-34
2021/09/17 09:50:15;;;;;;;;;;;;;;;19.88;70.87;101626.28;5053129;28;19992;-34
2021/09/17 09:52:40;;;;;;;;;;;;;;;19.95;73.13;101626.81;5053508;28;19959;-34
2021/09/17 09:55:07;;;;;;;;;;;;;;;20.07;72.98;101626.56;5053383;28;19912;-34
2021/09/17 09:57:32;;;;;;;;;;;;;;;20.17;71.99;101621.06;5054208;28;19963;-34
2021/09/17 10:00:04;;;;;;;;;;;;;;;20.27;72.21;101618.28;5053549;28;20304;-34
2021/09/17 10:02:29;;;;;;;;;;;;;;;20.41;72.14;101625.97;5053354;28;19920;-34
2021/09/17 10:04:57;;;;;;;;;;;;;;;20.50;70.51;101625.16;5053125;28;19916;-34
2021/09/17 10:07:24;;;;;;;;;;;;;;;20.55;69.30;101629.81;5053570;28;20317;-34
2021/09/17 10:09:49;;;;;;;;;;;;;;;20.60;69.92;101626.22;5053204;28;20007;-34
2021/09/17 10:12:15;;;;;;;;;;;;;;;20.66;69.94;101617.69;5053196;28;19962;-34
2021/09/17 10:14:42;;;;;;;;;;;;;;;20.76;70.07;101617.63;5053196;28;19920;-34
2021/09/17 10:17:13;;;;;;;;;;;;;;;20.85;69.18;101617.88;5053618;28;20313;-34
2021/09/17 10:19:42;;;;;;;;;;;;;;;20.91;68.57;101614.00;5053163;28;19915;-34
2021/09/17 10:22:08;;;;;;;;;;;;;;;20.98;69.05;101609.00;5053950;28;19909;-34
2021/09/17 10:24:35;;;;;;;;;;;;;;;21.08;68.87;101619.13;5053797;28;19909;-34
2021/09/17 10:27:03;;;;;;;;;;;;;;;21.16;68.13;101615.81;5053369;28;20345;-36
2021/09/17 10:29:37;;;;;;;;;;;;;;;21.21;67.59;101613.03;5053161;28;19998;-37
2021/09/17 10:32:04;;;;;;;;;;;;;;;21.26;67.15;101613.00;5052791;28;19916;-37
2021/09/17 10:34:29;;;;;;;;;;;;;;;21.41;67.74;101614.03;5053105;28;20272;-37
2021/09/17 10:36:54;;;;;;;;;;;;;;;21.54;67.16;101624.41;5053670;28;19909;-37
2021/09/17 10:39:20;;;;;;;;;;;;;;;21.66;65.14;101615.78;5052840;28;19912;-37
2021/09/17 10:42:05;;;;;;;;;;;;;;;21.75;66.11;101612.13;5052808;28;19919;-37
2021/09/17 10:44:30;;;;;;;;;;;;;;;21.89;63.15;101614.22;5053258;28;19927;-37
2021/09/17 10:46:55;;;;;;;;;;;;;;;21.87;65.96;101613.72;5053003;28;20345;-37
2021/09/17 10:49:21;;;;;;;;;;;;;;;21.99;64.42;101608.63;5053247;28;19979;-37
2021/09/17 10:51:46;;;;;;;;;;;;;;;22.13;65.05;101615.16;5055969;28;19954;-37
2021/09/17 10:54:19;;;;;;;;;;;;;;;22.22;63.54;101609.84;5056602;28;19909;-37
2021/09/17 10:56:48;;;;;;;;;;;;;;;22.23;64.22;101609.53;5056549;28;19962;-37
2021/09/17 10:59:15;;;;;;;;;;;;;;;22.21;61.05;101603.50;5056511;28;20352;-37
2021/09/17 11:01:50;;;;;;;;;;;;;;;22.17;62.58;101607.13;5056369;28;20046;-37
2021/09/17 11:04:19;;;;;;;;;;;;;;;22.12;61.67;101605.25;5056342;28;20324;-37
2021/09/17 11:06:45;;;;;;;;;;;;;;;22.05;62.29;101601.97;5056302;28;19913;-37
2021/09/17 11:09:10;;;;;;;;;;;;;;;22.05;60.99;101611.03;5056281;28;19966;-37
2021/09/17 11:11:38;;;;;;;;;;;;;;;22.15;60.73;101598.31;5056242;28;19975;-37
2021/09/17 11:14:04;;;;;;;;;;;;;;;22.28;62.32;101590.19;5056260;28;19932;-37
2021/09/17 11:16:31;;;;;;;;;;;;;;;22.45;61.60;101602.69;5056814;28;19908;-37
2021/09/17 11:19:00;;;;;;;;;;;;;;;22.54;61.33;101603.69;5056168;28;19916;-37
2021/09/17 11:21:27;;;;;;;;;;;;;;;22.52;60.11;101600.41;5056022;28;19915;-37
2021/09/17 11:23:52;;;;;;;;;;;;;;;22.53;60.79;101602.06;5056192;28;19948;-37
2021/09/17 11:26:22;;;;;;;;;;;;;;;22.47;58.38;101598.53;5056268;28;19992;-37
2021/09/17 11:29:06;;;;;;;;;;;;;;;22.42;56.76;101592.25;5056011;28;19969;-37
2021/09/17 11:31:35;;;;;;;;;;;;;;;22.40;56.54;101594.47;5055617;28;19947;-37
2021/09/17 11:34:11;;;;;;;;;;;;;;;22.51;59.83;101599.59;5055826;28;19913;-37
2021/09/17 11:36:39;;;;;;;;;;;;;;;22.56;56.84;101596.78;5056120;28;19912;-37
2021/09/17 11:39:10;;;;;;;;;;;;;;;22.64;54.99;101592.53;5055517;28;19944;-37
2021/09/17 11:41:36;;;;;;;;;;;;;;;22.72;58.26;101594.66;5055784;28;20003;-37
2021/09/17 11:44:02;;;;;;;;;;;;;;;22.71;55.58;101584.75;5055352;28;20353;-37
2021/09/17 11:46:28;;;;;;;;;;;;;;;22.77;57.03;101589.06;5055886;28;19999;-37
2021/09/17 11:48:53;;;;;;;;;;;;;;;22.88;56.55;101582.34;5055398;28;19916;-37
2021/09/17 11:51:21;;;;;;;;;;;;;;;22.94;57.80;101587.81;5056106;28;20234;-37
2021/09/17 11:53:46;;;;;;;;;;;;;;;23.06;59.22;101583.50;5055573;28;19908;-35
2021/09/17 11:56:12;;;;;;;;;;;;;;;23.15;54.95;101582.81;5055633;28;20353;-34
2021/09/17 11:58:55;;;;;;;;;;;;;;;23.14;55.77;101579.25;5055290;28;19909;-34
2021/09/17 12:01:23;;;;;;;;;;;;;;;23.19;56.11;101581.13;5055154;28;20384;-34
2021/09/17 12:03:52;;;;;;;;;;;;;;;23.29;57.90;101581.78;5054823;28;19916;-35
2021/09/17 12:06:18;;;;;;;;;;;;;;;23.47;58.35;101573.78;5055964;28;19916;-35
2021/09/17 12:08:44;;;;;;;;;;;;;;;23.59;57.39;101580.47;5055315;28;19924;-35
2021/09/17 12:11:09;;;;;;;;;;;;;;;23.67;57.58;101578.19;5055613;28;20341;-35
2021/09/17 12:13:35;;;;;;;;;;;;;;;23.69;55.68;101574.00;5054934;28;19923;-36
2021/09/17 12:16:05;;;;;;;;;;;;;;;23.58;55.09;101581.63;5055780;28;19912;-35
2021/09/17 12:18:30;;;;;;;;;;;;;;;23.43;57.75;101581.03;5055609;28;19912;-37
2021/09/17 12:21:02;;;;;;;;;;;;;;;23.40;57.63;101579.69;5054009;28;19923;-36
2021/09/17 12:23:33;;;;;;;;;;;;;;;23.37;56.77;101574.75;5055383;28;19908;-36
2021/09/17 12:26:09;;;;;;;;;;;;;;;23.18;58.32;101580.31;5055385;28;19959;-36
2021/09/17 12:28:34;;;;;;;;;;;;;;;23.02;58.25;101576.91;5054784;28;20007;-36
2021/09/17 12:31:00;;;;;;;;;;;;;;;22.97;58.63;101576.16;5055063;28;20007;-36